Time,TemperatureF,DewpointF,PressureIn,WindDirection,WindDirectionDegrees,WindSpeedMPH,WindSpeedGustMPH,Humidity,HourlyPrecipIn,Conditions,Clouds,dailyrainin,SoftwareType,DateUTC
2013-05-20 00:01:00,60.0,44.0,-100.00,SW,236,4.0,10.0,55,-99.99,,,-99.99,,2013-05-20 07:01:00,
2013-05-20 00:11:00,60.0,44.0,-100.00,WSW,243,2.0,5.0,55,-99.99,,,-99.99,,2013-05-20 07:11:00,
2013-05-20 00:21:00,59.0,43.0,-100.00,SE,143,2.0,5.0,56,-99.99,,,-99.99,,2013-05-20 07:21:00,
2013-05-20 00:32:00,59.0,43.0,-100.00,West,270,4.0,7.0,55,-99.99,,,-99.99,,2013-05-20 07:32:00,
2013-05-20 00:41:00,59.0,43.0,-100.00,SW,235,1.0,5.0,55,-99.99,,,-99.99,,2013-05-20 07:41:00,
2013-05-20 00:52:00,60.0,43.0,-100.00,SW,214,1.0,2.0,54,-99.99,,,-99.99,,2013-05-20 07:52:00,
2013-05-20 01:01:00,59.0,43.0,-100.00,SE,139,1.0,2.0,55,-99.99,,,-99.99,,2013-05-20 08:01:00,
2013-05-20 01:11:00,60.0,43.0,-100.00,NNW,338,1.0,3.0,54,-99.99,,,-99.99,,2013-05-20 08:11:00,
2013-05-20 01:21:00,59.0,43.0,-100.00,NNE,31,1.0,3.0,55,-99.99,,,-99.99,,2013-05-20 08:21:00,
2013-05-20 01:31:00,60.0,43.0,-100.00,NE,48,2.0,4.0,54,-99.99,,,-99.99,,2013-05-20 08:31:00,
2013-05-20 01:41:00,60.0,43.0,-100.00,NE,34,2.0,4.0,53,-99.99,,,-99.99,,2013-05-20 08:41:00,
2013-05-20 01:51:00,59.0,43.0,-100.00,West,266,3.0,6.0,55,-99.99,,,-99.99,,2013-05-20 08:51:00,
2013-05-20 02:01:00,58.0,43.0,-100.00,WSW,257,1.0,3.0,57,-99.99,,,-99.99,,2013-05-20 09:01:00,
2013-05-20 02:12:00,59.0,43.0,-100.00,WNW,303,2.0,4.0,56,-99.99,,,-99.99,,2013-05-20 09:12:00,
2013-05-20 02:21:00,59.0,42.0,-100.00,West,276,2.0,5.0,54,-99.99,,,-99.99,,2013-05-20 09:21:00,
2013-05-20 02:32:00,59.0,42.0,-100.00,WNW,282,4.0,6.0,54,-99.99,,,-99.99,,2013-05-20 09:32:00,
2013-05-20 02:43:00,59.0,42.0,-100.00,West,271,4.0,7.0,54,-99.99,,,-99.99,,2013-05-20 09:43:00,
2013-05-20 02:52:00,59.0,43.0,-100.00,SW,225,3.0,5.0,55,-99.99,,,-99.99,,2013-05-20 09:52:00,
2013-05-20 03:03:00,60.0,43.0,-100.00,SE,127,2.0,4.0,54,-99.99,,,-99.99,,2013-05-20 10:03:00,
2013-05-20 03:12:00,60.0,43.0,-100.00,WSW,246,1.0,2.0,54,-99.99,,,-99.99,,2013-05-20 10:12:00,
2013-05-20 03:22:00,60.0,43.0,-100.00,WNW,295,2.0,3.0,53,-99.99,,,-99.99,,2013-05-20 10:22:00,
2013-05-20 03:32:00,59.0,42.0,-100.00,WNW,282,3.0,5.0,53,-99.99,,,-99.99,,2013-05-20 10:32:00,
2013-05-20 03:42:00,56.0,42.0,-100.00,WNW,302,5.0,6.0,59,-99.99,,,-99.99,,2013-05-20 10:42:00,
2013-05-20 03:52:00,57.0,42.0,-100.00,WNW,300,5.0,5.0,58,-99.99,,,-99.99,,2013-05-20 10:52:00,
2013-05-20 04:02:00,58.0,43.0,-100.00,WNW,302,5.0,6.0,57,-99.99,,,-99.99,,2013-05-20 11:02:00,
2013-05-20 04:12:00,57.0,42.0,-100.00,WNW,302,5.0,6.0,57,-99.99,,,-99.99,,2013-05-20 11:12:00,
2013-05-20 04:21:00,57.0,42.0,-100.00,NW,306,5.0,6.0,57,-99.99,,,-99.99,,2013-05-20 11:21:00,
2013-05-20 04:32:00,58.0,42.0,-100.00,NW,325,5.0,7.0,56,-99.99,,,-99.99,,2013-05-20 11:32:00,
2013-05-20 04:41:00,57.0,41.0,-100.00,NW,322,5.0,6.0,56,-99.99,,,-99.99,,2013-05-20 11:41:00,
2013-05-20 04:51:00,57.0,41.0,-100.00,NW,317,5.0,6.0,56,-99.99,,,-99.99,,2013-05-20 11:51:00,
2013-05-20 05:01:00,59.0,42.0,-100.00,NW,312,5.0,7.0,53,-99.99,,,-99.99,,2013-05-20 12:01:00,
2013-05-20 05:11:00,61.0,42.0,-100.00,NW,316,4.0,5.0,49,-99.99,,,-99.99,,2013-05-20 12:11:00,
2013-05-20 05:21:00,61.0,41.0,-100.00,NW,319,4.0,5.0,47,-99.99,,,-99.99,,2013-05-20 12:21:00,
2013-05-20 05:31:00,61.0,41.0,-100.00,NW,320,4.0,5.0,47,-99.99,,,-99.99,,2013-05-20 12:31:00,
2013-05-20 05:41:00,62.0,41.0,-100.00,NW,325,4.0,6.0,46,-99.99,,,-99.99,,2013-05-20 12:41:00,
2013-05-20 05:51:00,62.0,39.0,-100.00,NW,325,4.0,5.0,43,-99.99,,,-99.99,,2013-05-20 12:51:00,
2013-05-20 06:01:00,63.0,38.0,-100.00,NNW,333,4.0,6.0,39,-99.99,,,-99.99,,2013-05-20 13:01:00,
2013-05-20 06:11:00,64.0,38.0,-100.00,NNW,331,4.0,7.0,38,-99.99,,,-99.99,,2013-05-20 13:11:00,
2013-05-20 07:11:00,64.0,36.0,-100.00,NNE,28,5.0,6.0,35,-99.99,,,-99.99,,2013-05-20 14:11:00,
2013-05-20 07:31:00,68.0,36.0,-100.00,NNE,32,8.0,12.0,31,-99.99,,,-99.99,,2013-05-20 14:31:00,
2013-05-20 07:41:00,70.0,34.0,-100.00,NE,37,11.0,16.0,27,-99.99,,,-99.99,,2013-05-20 14:41:00,
2013-05-20 08:11:00,71.0,31.0,-100.00,NE,49,14.0,19.0,23,-99.99,,,-99.99,,2013-05-20 15:11:00,
2013-05-20 08:21:00,71.0,30.0,-100.00,NNE,33,15.0,21.0,22,-99.99,,,-99.99,,2013-05-20 15:21:00,
2013-05-20 08:33:00,71.0,30.0,-100.00,NNE,31,14.0,21.0,22,-99.99,,,-99.99,,2013-05-20 15:33:00,
2013-05-20 08:42:00,71.0,30.0,-100.00,NE,41,14.0,21.0,22,-99.99,,,-99.99,,2013-05-20 15:42:00,
2013-05-20 08:53:00,71.0,30.0,-100.00,NE,53,14.0,21.0,22,-99.99,,,-99.99,,2013-05-20 15:53:00,
2013-05-20 09:02:00,71.0,31.0,-100.00,NE,42,14.0,21.0,23,-99.99,,,-99.99,,2013-05-20 16:02:00,
2013-05-20 09:12:00,70.0,30.0,-100.00,NE,35,15.0,22.0,23,-99.99,,,-99.99,,2013-05-20 16:12:00,
2013-05-20 09:22:00,71.0,31.0,-100.00,NE,39,15.0,23.0,23,-99.99,,,-99.99,,2013-05-20 16:22:00,
2013-05-20 09:32:00,71.0,30.0,-100.00,NE,43,14.0,19.0,22,-99.99,,,-99.99,,2013-05-20 16:32:00,
2013-05-20 09:42:00,72.0,27.0,-100.00,ENE,60,14.0,22.0,19,-99.99,,,-99.99,,2013-05-20 16:42:00,
2013-05-20 09:52:00,73.0,27.0,-100.00,ENE,61,12.0,20.0,18,-99.99,,,-99.99,,2013-05-20 16:52:00,
2013-05-20 10:02:00,73.0,26.0,-100.00,ENE,63,16.0,22.0,17,-99.99,,,-99.99,,2013-05-20 17:02:00,
2013-05-20 10:11:00,73.0,26.0,-100.00,ENE,63,16.0,22.0,17,-99.99,,,-99.99,,2013-05-20 17:11:00,
2013-05-20 10:22:00,73.0,26.0,-100.00,ENE,59,15.0,23.0,17,-99.99,,,-99.99,,2013-05-20 17:22:00,
2013-05-20 10:32:00,73.0,27.0,-100.00,NE,50,14.0,24.0,18,-99.99,,,-99.99,,2013-05-20 17:32:00,
2013-05-20 10:45:00,72.0,25.0,-100.00,NE,46,16.0,23.0,17,-99.99,,,-99.99,,2013-05-20 17:45:00,
2013-05-20 10:53:00,73.0,24.0,-100.00,NE,53,16.0,21.0,16,-99.99,,,-99.99,,2013-05-20 17:53:00,
2013-05-20 11:02:00,73.0,24.0,-100.00,ENE,60,15.0,23.0,16,-99.99,,,-99.99,,2013-05-20 18:02:00,
2013-05-20 11:12:00,74.0,25.0,-100.00,ENE,58,15.0,21.0,16,-99.99,,,-99.99,,2013-05-20 18:12:00,
2013-05-20 11:23:00,74.0,23.0,-100.00,NE,51,15.0,22.0,15,-99.99,,,-99.99,,2013-05-20 18:23:00,
2013-05-20 11:32:00,74.0,22.0,-100.00,NE,48,15.0,21.0,14,-99.99,,,-99.99,,2013-05-20 18:32:00,
2013-05-20 11:41:00,74.0,22.0,-100.00,ENE,70,15.0,21.0,14,-99.99,,,-99.99,,2013-05-20 18:41:00,
2013-05-20 11:55:00,75.0,23.0,-100.00,ENE,75,15.0,22.0,14,-99.99,,,-99.99,,2013-05-20 18:55:00,
2013-05-20 12:04:00,75.0,23.0,-100.00,ENE,75,15.0,22.0,14,-99.99,,,-99.99,,2013-05-20 19:04:00,
2013-05-20 12:11:00,74.0,23.0,-100.00,NE,56,14.0,23.0,15,-99.99,,,-99.99,,2013-05-20 19:11:00,
2013-05-20 12:21:00,75.0,24.0,-100.00,ENE,63,12.0,19.0,15,-99.99,,,-99.99,,2013-05-20 19:21:00,
2013-05-20 12:32:00,76.0,23.0,-100.00,ENE,60,13.0,23.0,14,-99.99,,,-99.99,,2013-05-20 19:32:00,
2013-05-20 12:41:00,76.0,23.0,-100.00,ENE,60,13.0,23.0,14,-99.99,,,-99.99,,2013-05-20 19:41:00,
2013-05-20 12:52:00,76.0,23.0,-100.00,ENE,61,14.0,19.0,14,-99.99,,,-99.99,,2013-05-20 19:52:00,
2013-05-20 13:01:00,76.0,23.0,-100.00,ENE,61,14.0,19.0,14,-99.99,,,-99.99,,2013-05-20 20:01:00,
2013-05-20 13:11:00,76.0,25.0,-100.00,NE,49,15.0,24.0,15,-99.99,,,-99.99,,2013-05-20 20:11:00,
2013-05-20 13:21:00,76.0,25.0,-100.00,NE,50,14.0,20.0,15,-99.99,,,-99.99,,2013-05-20 20:21:00,
2013-05-20 13:32:00,76.0,23.0,-100.00,NE,48,14.0,24.0,14,-99.99,,,-99.99,,2013-05-20 20:32:00,
2013-05-20 13:42:00,77.0,24.0,-100.00,NE,45,12.0,20.0,14,-99.99,,,-99.99,,2013-05-20 20:42:00,
2013-05-20 13:51:00,76.0,23.0,-100.00,NE,45,13.0,20.0,14,-99.99,,,-99.99,,2013-05-20 20:51:00,
2013-05-20 14:01:00,76.0,23.0,-100.00,NE,45,13.0,20.0,14,-99.99,,,-99.99,,2013-05-20 21:01:00,
2013-05-20 14:11:00,77.0,22.0,-100.00,ENE,58,12.0,21.0,13,-99.99,,,-99.99,,2013-05-20 21:11:00,
2013-05-20 14:21:00,77.0,22.0,-100.00,ENE,69,12.0,19.0,13,-99.99,,,-99.99,,2013-05-20 21:21:00,
2013-05-20 14:32:00,78.0,23.0,-100.00,ENE,61,11.0,19.0,13,-99.99,,,-99.99,,2013-05-20 21:32:00,
2013-05-20 14:43:00,78.0,23.0,-100.00,ENE,61,11.0,19.0,13,-99.99,,,-99.99,,2013-05-20 21:43:00,
2013-05-20 14:53:00,79.0,24.0,-100.00,ENE,78,10.0,17.0,13,-99.99,,,-99.99,,2013-05-20 21:53:00,
2013-05-20 15:02:00,79.0,22.0,-100.00,East,86,8.0,14.0,12,-99.99,,,-99.99,,2013-05-20 22:02:00,
2013-05-20 15:12:00,78.0,21.0,-100.00,East,79,11.0,20.0,12,-99.99,,,-99.99,,2013-05-20 22:12:00,
2013-05-20 15:22:00,78.0,21.0,-100.00,East,84,8.0,13.0,12,-99.99,,,-99.99,,2013-05-20 22:22:00,
2013-05-20 15:33:00,79.0,22.0,-100.00,ENE,69,9.0,16.0,12,-99.99,,,-99.99,,2013-05-20 22:33:00,
2013-05-20 15:42:00,79.0,22.0,-100.00,ESE,102,9.0,15.0,12,-99.99,,,-99.99,,2013-05-20 22:42:00,
2013-05-20 15:52:00,79.0,22.0,-100.00,East,100,11.0,17.0,12,-99.99,,,-99.99,,2013-05-20 22:52:00,
2013-05-20 16:02:00,79.0,22.0,-100.00,East,90,10.0,14.0,12,-99.99,,,-99.99,,2013-05-20 23:02:00,
2013-05-20 16:12:00,79.0,22.0,-100.00,NE,54,10.0,17.0,12,-99.99,,,-99.99,,2013-05-20 23:12:00,
2013-05-20 16:21:00,78.0,21.0,-100.00,NNE,12,7.0,12.0,12,-99.99,,,-99.99,,2013-05-20 23:21:00,
2013-05-20 16:32:00,80.0,23.0,-100.00,NE,48,6.0,13.0,12,-99.99,,,-99.99,,2013-05-20 23:32:00,
2013-05-20 16:42:00,79.0,22.0,-100.00,East,89,6.0,11.0,12,-99.99,,,-99.99,,2013-05-20 23:42:00,
2013-05-20 16:52:00,79.0,22.0,-100.00,NE,52,8.0,17.0,12,-99.99,,,-99.99,,2013-05-20 23:52:00,
2013-05-20 17:01:00,80.0,23.0,-100.00,ENE,68,7.0,14.0,12,-99.99,,,-99.99,,2013-05-21 00:01:00,
2013-05-20 17:11:00,80.0,23.0,-100.00,ENE,75,7.0,13.0,12,-99.99,,,-99.99,,2013-05-21 00:11:00,
2013-05-20 17:21:00,80.0,23.0,-100.00,ESE,102,6.0,11.0,12,-99.99,,,-99.99,,2013-05-21 00:21:00,
2013-05-20 17:31:00,80.0,23.0,-100.00,ESE,115,7.0,12.0,12,-99.99,,,-99.99,,2013-05-21 00:31:00,
2013-05-20 17:41:00,80.0,23.0,-100.00,East,94,8.0,14.0,12,-99.99,,,-99.99,,2013-05-21 00:41:00,
2013-05-20 17:52:00,79.0,22.0,-100.00,ESE,103,9.0,14.0,12,-99.99,,,-99.99,,2013-05-21 00:52:00,
2013-05-20 18:01:00,79.0,22.0,-100.00,ESE,103,9.0,14.0,12,-99.99,,,-99.99,,2013-05-21 01:01:00,
2013-05-20 18:11:00,80.0,23.0,-100.00,ENE,69,7.0,13.0,12,-99.99,,,-99.99,,2013-05-21 01:11:00,
2013-05-20 18:21:00,79.0,22.0,-100.00,ENE,71,7.0,13.0,12,-99.99,,,-99.99,,2013-05-21 01:21:00,
2013-05-20 18:32:00,79.0,22.0,-100.00,East,89,5.0,10.0,12,-99.99,,,-99.99,,2013-05-21 01:32:00,
2013-05-20 18:42:00,79.0,22.0,-100.00,East,81,5.0,8.0,12,-99.99,,,-99.99,,2013-05-21 01:42:00,
2013-05-20 18:52:00,79.0,22.0,-100.00,ENE,69,5.0,8.0,12,-99.99,,,-99.99,,2013-05-21 01:52:00,
2013-05-20 19:01:00,79.0,22.0,-100.00,ENE,59,4.0,9.0,12,-99.99,,,-99.99,,2013-05-21 02:01:00,
2013-05-20 19:11:00,79.0,22.0,-100.00,ENE,66,5.0,8.0,12,-99.99,,,-99.99,,2013-05-21 02:11:00,
2013-05-20 19:32:00,78.0,23.0,-100.00,NNE,19,3.0,7.0,13,-99.99,,,-99.99,,2013-05-21 02:32:00,
2013-05-20 19:41:00,78.0,23.0,-100.00,NNE,33,3.0,5.0,13,-99.99,,,-99.99,,2013-05-21 02:41:00,
2013-05-20 20:01:00,76.0,23.0,-100.00,NNW,338,2.0,4.0,14,-99.99,,,-99.99,,2013-05-21 03:01:00,
2013-05-20 20:11:00,75.0,23.0,-100.00,NNW,333,2.0,4.0,14,-99.99,,,-99.99,,2013-05-21 03:11:00,
2013-05-20 20:33:00,74.0,22.0,-100.00,NNE,12,3.0,6.0,14,-99.99,,,-99.99,,2013-05-21 03:33:00,
2013-05-20 20:42:00,72.0,22.0,-100.00,NNW,328,4.0,6.0,15,-99.99,,,-99.99,,2013-05-21 03:42:00,
2013-05-20 20:53:00,73.0,23.0,-100.00,NW,320,3.0,3.0,15,-99.99,,,-99.99,,2013-05-21 03:53:00,
2013-05-20 21:03:00,73.0,23.0,-100.00,NW,315,2.0,3.0,15,-99.99,,,-99.99,,2013-05-21 04:03:00,
2013-05-20 21:12:00,73.0,23.0,-100.00,NW,317,3.0,4.0,15,-99.99,,,-99.99,,2013-05-21 04:12:00,
2013-05-20 21:33:00,72.0,22.0,-100.00,NW,324,3.0,5.0,15,-99.99,,,-99.99,,2013-05-21 04:33:00,
2013-05-20 21:42:00,72.0,22.0,-100.00,NW,324,3.0,5.0,15,-99.99,,,-99.99,,2013-05-21 04:42:00,
2013-05-20 21:52:00,70.0,23.0,-100.00,NW,304,4.0,5.0,17,-99.99,,,-99.99,,2013-05-21 04:52:00,
2013-05-20 22:02:00,70.0,23.0,-100.00,NW,304,4.0,5.0,17,-99.99,,,-99.99,,2013-05-21 05:02:00,
2013-05-20 22:11:00,70.0,22.0,-100.00,NW,314,4.0,6.0,16,-99.99,,,-99.99,,2013-05-21 05:11:00,
2013-05-20 22:21:00,70.0,22.0,-100.00,NW,315,5.0,7.0,16,-99.99,,,-99.99,,2013-05-21 05:21:00,
2013-05-20 22:31:00,70.0,22.0,-100.00,NW,311,5.0,5.0,16,-99.99,,,-99.99,,2013-05-21 05:31:00,
2013-05-20 22:42:00,70.0,22.0,-100.00,NW,311,5.0,5.0,16,-99.99,,,-99.99,,2013-05-21 05:42:00,
2013-05-20 22:51:00,70.0,22.0,-100.00,NW,314,4.0,6.0,16,-99.99,,,-99.99,,2013-05-21 05:51:00,
2013-05-20 23:01:00,70.0,22.0,-100.00,NW,314,4.0,6.0,16,-99.99,,,-99.99,,2013-05-21 06:01:00,
2013-05-20 23:11:00,69.0,22.0,-100.00,NW,309,4.0,5.0,17,-99.99,,,-99.99,,2013-05-21 06:11:00,
2013-05-20 23:21:00,70.0,22.0,-100.00,NW,307,3.0,4.0,16,-99.99,,,-99.99,,2013-05-21 06:21:00,
2013-05-20 23:32:00,70.0,22.0,-100.00,NW,320,3.0,4.0,16,-99.99,,,-99.99,,2013-05-21 06:32:00,
2013-05-20 23:51:00,69.0,22.0,-100.00,NW,317,4.0,5.0,17,-99.99,,,-99.99,,2013-05-21 06:51:00,